sensor_id;sensor_type;location;lat;lon;timestamp;pressure;altitude;pressure_sealevel;temperature;humidity
46682;BME280;34101;53.430;-2.224;2023-05-23T00:02:18;102254.46;;;16.89;53.18
46682;BME280;34101;53.430;-2.224;2023-05-23T00:04:46;102253.92;;;16.83;53.37
46682;BME280;34101;53.430;-2.224;2023-05-23T00:07:14;102253.79;;;16.82;53.64
46682;BME280;34101;53.430;-2.224;2023-05-23T00:09:46;102259.64;;;16.81;53.71
46682;BME280;34101;53.430;-2.224;2023-05-23T00:12:14;102259.04;;;16.83;53.86
46682;BME280;34101;53.430;-2.224;2023-05-23T00:14:41;102265.84;;;16.91;53.66
46682;BME280;34101;53.430;-2.224;2023-05-23T00:17:09;102267.25;;;16.97;53.52
46682;BME280;34101;53.430;-2.224;2023-05-23T00:19:36;102269.96;;;17.05;53.33
46682;BME280;34101;53.430;-2.224;2023-05-23T00:22:04;102272.78;;;17.09;53.30
46682;BME280;34101;53.430;-2.224;2023-05-23T00:24:31;102274.88;;;17.15;53.02
46682;BME280;34101;53.430;-2.224;2023-05-23T00:26:58;102272.67;;;17.22;52.86
46682;BME280;34101;53.430;-2.224;2023-05-23T00:29:26;102273.03;;;17.23;52.92
46682;BME280;34101;53.430;-2.224;2023-05-23T00:31:53;102271.97;;;17.28;52.76
46682;BME280;34101;53.430;-2.224;2023-05-23T00:34:21;102270.25;;;17.27;52.64
46682;BME280;34101;53.430;-2.224;2023-05-23T00:36:48;102269.88;;;17.27;52.62
46682;BME280;34101;53.430;-2.224;2023-05-23T00:39:16;102272.12;;;17.27;52.67
46682;BME280;34101;53.430;-2.224;2023-05-23T00:41:43;102271.34;;;17.32;52.59
46682;BME280;34101;53.430;-2.224;2023-05-23T00:44:10;102267.39;;;17.27;52.73
46682;BME280;34101;53.430;-2.224;2023-05-23T00:46:38;102268.26;;;17.26;52.58
46682;BME280;34101;53.430;-2.224;2023-05-23T00:49:05;102267.02;;;17.27;52.69
46682;BME280;34101;53.430;-2.224;2023-05-23T00:51:33;102266.59;;;17.31;52.61
46682;BME280;34101;53.430;-2.224;2023-05-23T00:54:01;102265.48;;;17.29;52.62
46682;BME280;34101;53.430;-2.224;2023-05-23T00:56:30;102265.71;;;17.25;52.77
46682;BME280;34101;53.430;-2.224;2023-05-23T00:58:58;102264.29;;;17.24;52.91
46682;BME280;34101;53.430;-2.224;2023-05-23T01:01:25;102265.79;;;17.18;52.83
46682;BME280;34101;53.430;-2.224;2023-05-23T01:03:53;102267.82;;;17.13;52.84
46682;BME280;34101;53.430;-2.224;2023-05-23T01:06:20;102268.48;;;17.10;52.96
46682;BME280;34101;53.430;-2.224;2023-05-23T01:08:48;102266.41;;;17.00;53.14
46682;BME280;34101;53.430;-2.224;2023-05-23T01:11:22;102269.69;;;16.89;53.45
46682;BME280;34101;53.430;-2.224;2023-05-23T01:13:57;102270.45;;;16.94;53.52
46682;BME280;34101;53.430;-2.224;2023-05-23T01:16:31;102268.84;;;16.98;53.51
46682;BME280;34101;53.430;-2.224;2023-05-23T01:19:13;102269.50;;;17.00;53.63
46682;BME280;34101;53.430;-2.224;2023-05-23T01:21:52;102276.20;;;16.97;53.67
46682;BME280;34101;53.430;-2.224;2023-05-23T01:24:37;102279.22;;;16.89;54.02
46682;BME280;34101;53.430;-2.224;2023-05-23T01:27:17;102280.04;;;16.88;54.20
46682;BME280;34101;53.430;-2.224;2023-05-23T01:29:53;102278.26;;;16.85;54.05
46682;BME280;34101;53.430;-2.224;2023-05-23T01:32:24;102280.97;;;16.78;54.47
46682;BME280;34101;53.430;-2.224;2023-05-23T01:34:53;102287.27;;;16.77;54.31
46682;BME280;34101;53.430;-2.224;2023-05-23T01:37:21;102288.84;;;16.75;54.43
46682;BME280;34101;53.430;-2.224;2023-05-23T01:39:48;102289.12;;;16.75;54.50
46682;BME280;34101;53.430;-2.224;2023-05-23T01:42:16;102289.49;;;16.78;54.50
46682;BME280;34101;53.430;-2.224;2023-05-23T01:44:44;102282.95;;;16.81;54.49
46682;BME280;34101;53.430;-2.224;2023-05-23T01:47:17;102286.95;;;16.80;54.56
46682;BME280;34101;53.430;-2.224;2023-05-23T01:49:45;102291.55;;;16.73;54.70
46682;BME280;34101;53.430;-2.224;2023-05-23T01:52:13;102297.51;;;16.71;54.90
46682;BME280;34101;53.430;-2.224;2023-05-23T01:54:41;102300.53;;;16.72;54.94
46682;BME280;34101;53.430;-2.224;2023-05-23T01:57:09;102309.97;;;16.71;54.82
46682;BME280;34101;53.430;-2.224;2023-05-23T01:59:36;102312.77;;;16.73;54.55
46682;BME280;34101;53.430;-2.224;2023-05-23T02:02:04;102309.48;;;16.76;54.55
46682;BME280;34101;53.430;-2.224;2023-05-23T02:04:31;102310.38;;;16.79;54.49
46682;BME280;34101;53.430;-2.224;2023-05-23T02:06:59;102312.37;;;16.76;54.40
46682;BME280;34101;53.430;-2.224;2023-05-23T02:09:26;102314.35;;;16.69;54.50
46682;BME280;34101;53.430;-2.224;2023-05-23T02:11:53;102311.17;;;16.71;54.49
46682;BME280;34101;53.430;-2.224;2023-05-23T02:14:21;102309.00;;;16.67;54.65
46682;BME280;34101;53.430;-2.224;2023-05-23T02:16:48;102309.13;;;16.66;54.74
46682;BME280;34101;53.430;-2.224;2023-05-23T02:19:16;102310.82;;;16.65;54.82
46682;BME280;34101;53.430;-2.224;2023-05-23T02:21:43;102312.99;;;16.61;54.90
46682;BME280;34101;53.430;-2.224;2023-05-23T02:24:10;102313.22;;;16.58;54.78
46682;BME280;34101;53.430;-2.224;2023-05-23T02:26:38;102311.60;;;16.52;54.86
46682;BME280;34101;53.430;-2.224;2023-05-23T02:29:05;102312.83;;;16.51;55.05
46682;BME280;34101;53.430;-2.224;2023-05-23T02:31:33;102310.84;;;16.55;54.80
46682;BME280;34101;53.430;-2.224;2023-05-23T02:34:00;102310.11;;;16.49;54.92
46682;BME280;34101;53.430;-2.224;2023-05-23T02:36:28;102307.32;;;16.50;55.13
46682;BME280;34101;53.430;-2.224;2023-05-23T02:38:55;102308.10;;;16.47;55.17
46682;BME280;34101;53.430;-2.224;2023-05-23T02:41:23;102307.39;;;16.43;55.49
46682;BME280;34101;53.430;-2.224;2023-05-23T02:43:50;102308.17;;;16.40;55.58
46682;BME280;34101;53.430;-2.224;2023-05-23T02:46:17;102310.15;;;16.34;55.67
46682;BME280;34101;53.430;-2.224;2023-05-23T02:48:45;102306.28;;;16.29;55.53
46682;BME280;34101;53.430;-2.224;2023-05-23T02:51:12;102307.14;;;16.25;55.81
46682;BME280;34101;53.430;-2.224;2023-05-23T02:53:45;102307.20;;;16.20;56.04
46682;BME280;34101;53.430;-2.224;2023-05-23T02:56:11;102305.03;;;16.15;56.20
46682;BME280;34101;53.430;-2.224;2023-05-23T02:58:39;102303.37;;;16.11;56.34
46682;BME280;34101;53.430;-2.224;2023-05-23T03:01:07;102301.41;;;16.08;56.53
46682;BME280;34101;53.430;-2.224;2023-05-23T03:03:34;102300.20;;;16.06;56.50
46682;BME280;34101;53.430;-2.224;2023-05-23T03:06:02;102302.75;;;16.03;56.65
46682;BME280;34101;53.430;-2.224;2023-05-23T03:08:29;102305.24;;;16.00;56.78
46682;BME280;34101;53.430;-2.224;2023-05-23T03:10:56;102304.07;;;15.97;57.07
46682;BME280;34101;53.430;-2.224;2023-05-23T03:13:24;102301.40;;;15.95;57.08
46682;BME280;34101;53.430;-2.224;2023-05-23T03:15:52;102303.67;;;15.93;57.14
46682;BME280;34101;53.430;-2.224;2023-05-23T03:18:19;102302.46;;;15.90;57.24
46682;BME280;34101;53.430;-2.224;2023-05-23T03:20:47;102304.55;;;15.88;57.26
46682;BME280;34101;53.430;-2.224;2023-05-23T03:23:14;102306.09;;;15.90;57.15
46682;BME280;34101;53.430;-2.224;2023-05-23T03:25:42;102306.40;;;15.92;57.16
46682;BME280;34101;53.430;-2.224;2023-05-23T03:28:09;102309.01;;;15.95;57.08
46682;BME280;34101;53.430;-2.224;2023-05-23T03:30:42;102310.05;;;15.96;57.18
46682;BME280;34101;53.430;-2.224;2023-05-23T03:33:08;102310.79;;;15.99;57.06
46682;BME280;34101;53.430;-2.224;2023-05-23T03:35:36;102304.34;;;16.01;56.76
46682;BME280;34101;53.430;-2.224;2023-05-23T03:38:03;102300.53;;;16.02;56.63
46682;BME280;34101;53.430;-2.224;2023-05-23T03:40:31;102300.04;;;15.96;56.62
46682;BME280;34101;53.430;-2.224;2023-05-23T03:43:02;102298.18;;;15.94;56.61
46682;BME280;34101;53.430;-2.224;2023-05-23T03:45:29;102297.27;;;15.92;56.91
46682;BME280;34101;53.430;-2.224;2023-05-23T03:47:56;102300.36;;;15.90;57.07
46682;BME280;34101;53.430;-2.224;2023-05-23T03:50:25;102299.74;;;15.90;57.37
46682;BME280;34101;53.430;-2.224;2023-05-23T03:52:52;102298.13;;;15.86;57.40
46682;BME280;34101;53.430;-2.224;2023-05-23T03:55:20;102299.50;;;15.84;57.53
46682;BME280;34101;53.430;-2.224;2023-05-23T03:57:47;102302.50;;;15.84;57.49
46682;BME280;34101;53.430;-2.224;2023-05-23T04:00:15;102298.36;;;15.81;57.40
46682;BME280;34101;53.430;-2.224;2023-05-23T04:02:42;102298.71;;;15.82;57.51
46682;BME280;34101;53.430;-2.224;2023-05-23T04:05:09;102300.18;;;15.82;57.71
46682;BME280;34101;53.430;-2.224;2023-05-23T04:07:37;102303.62;;;15.81;57.76
46682;BME280;34101;53.430;-2.224;2023-05-23T04:10:06;102307.66;;;15.79;57.93
46682;BME280;34101;53.430;-2.224;2023-05-23T04:12:34;102311.87;;;15.79;58.25
46682;BME280;34101;53.430;-2.224;2023-05-23T04:15:01;102312.05;;;15.77;58.33
46682;BME280;34101;53.430;-2.224;2023-05-23T04:17:28;102311.48;;;15.76;58.26
46682;BME280;34101;53.430;-2.224;2023-05-23T04:19:56;102313.42;;;15.78;58.19
46682;BME280;34101;53.430;-2.224;2023-05-23T04:22:23;102315.76;;;15.81;58.32
46682;BME280;34101;53.430;-2.224;2023-05-23T04:24:51;102315.20;;;15.81;58.49
46682;BME280;34101;53.430;-2.224;2023-05-23T04:27:18;102314.36;;;15.84;58.29
46682;BME280;34101;53.430;-2.224;2023-05-23T04:29:45;102314.59;;;15.84;58.37
46682;BME280;34101;53.430;-2.224;2023-05-23T04:32:13;102315.33;;;15.81;58.49
46682;BME280;34101;53.430;-2.224;2023-05-23T04:34:40;102316.32;;;15.83;58.29
46682;BME280;34101;53.430;-2.224;2023-05-23T04:37:08;102319.92;;;15.83;58.15
46682;BME280;34101;53.430;-2.224;2023-05-23T04:39:35;102320.28;;;15.86;58.11
46682;BME280;34101;53.430;-2.224;2023-05-23T04:42:03;102321.32;;;15.88;58.04
46682;BME280;34101;53.430;-2.224;2023-05-23T04:44:30;102320.11;;;15.92;57.91
46682;BME280;34101;53.430;-2.224;2023-05-23T04:46:58;102319.82;;;15.99;57.49
46682;BME280;34101;53.430;-2.224;2023-05-23T04:49:25;102320.90;;;16.06;57.25
46682;BME280;34101;53.430;-2.224;2023-05-23T04:51:53;102320.12;;;16.11;57.23
46682;BME280;34101;53.430;-2.224;2023-05-23T04:54:20;102317.62;;;16.13;57.10
46682;BME280;34101;53.430;-2.224;2023-05-23T04:56:47;102318.20;;;16.13;57.29
46682;BME280;34101;53.430;-2.224;2023-05-23T04:59:15;102317.41;;;16.10;57.24
46682;BME280;34101;53.430;-2.224;2023-05-23T05:01:43;102317.81;;;16.14;57.04
46682;BME280;34101;53.430;-2.224;2023-05-23T05:04:10;102322.30;;;16.17;56.85
46682;BME280;34101;53.430;-2.224;2023-05-23T05:06:39;102319.72;;;16.24;56.76
46682;BME280;34101;53.430;-2.224;2023-05-23T05:09:07;102319.13;;;16.25;56.48
46682;BME280;34101;53.430;-2.224;2023-05-23T05:11:34;102320.42;;;16.24;56.64
46682;BME280;34101;53.430;-2.224;2023-05-23T05:14:01;102320.80;;;16.26;56.49
46682;BME280;34101;53.430;-2.224;2023-05-23T05:16:29;102321.80;;;16.27;56.48
46682;BME280;34101;53.430;-2.224;2023-05-23T05:18:56;102317.43;;;16.34;56.05
46682;BME280;34101;53.430;-2.224;2023-05-23T05:21:24;102315.26;;;16.39;55.87
46682;BME280;34101;53.430;-2.224;2023-05-23T05:23:51;102318.07;;;16.48;55.71
46682;BME280;34101;53.430;-2.224;2023-05-23T05:26:19;102318.78;;;16.37;56.59
46682;BME280;34101;53.430;-2.224;2023-05-23T05:28:46;102321.72;;;16.42;57.19
46682;BME280;34101;53.430;-2.224;2023-05-23T05:31:14;102321.59;;;16.49;56.90
46682;BME280;34101;53.430;-2.224;2023-05-23T05:33:41;102322.84;;;16.52;57.15
46682;BME280;34101;53.430;-2.224;2023-05-23T05:36:08;102325.23;;;16.62;56.78
46682;BME280;34101;53.430;-2.224;2023-05-23T05:38:36;102329.19;;;16.62;57.28
46682;BME280;34101;53.430;-2.224;2023-05-23T05:41:03;102329.48;;;16.58;57.53
46682;BME280;34101;53.430;-2.224;2023-05-23T05:43:30;102332.54;;;16.63;57.39
46682;BME280;34101;53.430;-2.224;2023-05-23T05:45:58;102332.10;;;16.62;57.82
46682;BME280;34101;53.430;-2.224;2023-05-23T05:48:26;102329.18;;;16.69;57.44
46682;BME280;34101;53.430;-2.224;2023-05-23T05:50:53;102325.28;;;16.71;57.72
46682;BME280;34101;53.430;-2.224;2023-05-23T05:53:20;102323.22;;;16.71;57.52
46682;BME280;34101;53.430;-2.224;2023-05-23T05:55:47;102326.75;;;16.71;57.46
46682;BME280;34101;53.430;-2.224;2023-05-23T05:58:15;102329.15;;;16.74;57.40
46682;BME280;34101;53.430;-2.224;2023-05-23T06:00:42;102332.52;;;16.68;57.76
46682;BME280;34101;53.430;-2.224;2023-05-23T06:03:09;102324.25;;;16.70;57.82
46682;BME280;34101;53.430;-2.224;2023-05-23T06:05:37;102323.41;;;16.69;57.66
46682;BME280;34101;53.430;-2.224;2023-05-23T06:08:05;102327.26;;;16.67;57.73
46682;BME280;34101;53.430;-2.224;2023-05-23T06:10:32;102327.97;;;16.64;57.75
46682;BME280;34101;53.430;-2.224;2023-05-23T06:12:59;102333.16;;;16.69;57.37
46682;BME280;34101;53.430;-2.224;2023-05-23T06:15:26;102333.60;;;16.75;57.20
46682;BME280;34101;53.430;-2.224;2023-05-23T06:17:54;102336.31;;;16.78;57.21
46682;BME280;34101;53.430;-2.224;2023-05-23T06:20:22;102331.50;;;16.77;57.04
46682;BME280;34101;53.430;-2.224;2023-05-23T06:22:49;102328.82;;;16.77;56.79
46682;BME280;34101;53.430;-2.224;2023-05-23T06:25:17;102327.68;;;16.79;56.83
46682;BME280;34101;53.430;-2.224;2023-05-23T06:27:44;102320.23;;;16.77;57.18
46682;BME280;34101;53.430;-2.224;2023-05-23T06:30:12;102319.23;;;16.77;57.42
46682;BME280;34101;53.430;-2.224;2023-05-23T06:32:40;102312.63;;;16.78;57.65
46682;BME280;34101;53.430;-2.224;2023-05-23T06:35:08;102312.00;;;16.81;57.53
46682;BME280;34101;53.430;-2.224;2023-05-23T06:37:35;102316.05;;;16.76;57.43
46682;BME280;34101;53.430;-2.224;2023-05-23T06:40:04;102315.44;;;16.72;57.46
46682;BME280;34101;53.430;-2.224;2023-05-23T06:42:31;102313.36;;;16.74;57.56
46682;BME280;34101;53.430;-2.224;2023-05-23T06:44:59;102311.79;;;16.76;57.43
46682;BME280;34101;53.430;-2.224;2023-05-23T06:47:26;102312.09;;;16.73;57.48
46682;BME280;34101;53.430;-2.224;2023-05-23T06:49:53;102316.51;;;16.73;56.80
46682;BME280;34101;53.430;-2.224;2023-05-23T06:52:21;102314.74;;;16.74;57.24
46682;BME280;34101;53.430;-2.224;2023-05-23T06:54:50;102317.67;;;16.87;56.48
46682;BME280;34101;53.430;-2.224;2023-05-23T06:57:18;102324.77;;;17.01;56.42
46682;BME280;34101;53.430;-2.224;2023-05-23T06:59:45;102326.99;;;17.10;56.00
46682;BME280;34101;53.430;-2.224;2023-05-23T07:02:12;102333.19;;;17.21;56.38
46682;BME280;34101;53.430;-2.224;2023-05-23T07:04:40;102335.76;;;17.35;56.05
46682;BME280;34101;53.430;-2.224;2023-05-23T07:07:07;102333.24;;;17.38;55.74
46682;BME280;34101;53.430;-2.224;2023-05-23T07:09:34;102333.83;;;17.41;54.84
46682;BME280;34101;53.430;-2.224;2023-05-23T07:12:01;102334.20;;;17.54;54.56
46682;BME280;34101;53.430;-2.224;2023-05-23T07:14:29;102339.93;;;17.55;54.10
46682;BME280;34101;53.430;-2.224;2023-05-23T07:16:56;102339.65;;;17.45;53.89
46682;BME280;34101;53.430;-2.224;2023-05-23T07:19:24;102339.95;;;17.49;53.68
46682;BME280;34101;53.430;-2.224;2023-05-23T07:21:51;102344.74;;;17.43;54.66
46682;BME280;34101;53.430;-2.224;2023-05-23T07:24:19;102349.04;;;17.37;54.39
46682;BME280;34101;53.430;-2.224;2023-05-23T07:26:46;102352.21;;;17.54;53.46
46682;BME280;34101;53.430;-2.224;2023-05-23T07:29:13;102359.12;;;17.61;53.25
46682;BME280;34101;53.430;-2.224;2023-05-23T07:31:41;102363.10;;;17.35;52.85
46682;BME280;34101;53.430;-2.224;2023-05-23T07:34:13;102369.83;;;17.45;53.54
46682;BME280;34101;53.430;-2.224;2023-05-23T07:36:41;102368.82;;;17.52;53.70
46682;BME280;34101;53.430;-2.224;2023-05-23T07:39:08;102366.69;;;17.19;56.04
46682;BME280;34101;53.430;-2.224;2023-05-23T07:41:40;102368.43;;;17.47;55.36
46682;BME280;34101;53.430;-2.224;2023-05-23T07:44:07;102369.54;;;17.42;55.21
46682;BME280;34101;53.430;-2.224;2023-05-23T07:46:35;102367.10;;;17.56;55.04
46682;BME280;34101;53.430;-2.224;2023-05-23T07:49:02;102366.45;;;17.63;54.99
46682;BME280;34101;53.430;-2.224;2023-05-23T07:51:29;102363.21;;;17.61;55.16
46682;BME280;34101;53.430;-2.224;2023-05-23T07:53:56;102366.22;;;17.21;56.67
46682;BME280;34101;53.430;-2.224;2023-05-23T07:56:25;102358.25;;;17.59;54.29
46682;BME280;34101;53.430;-2.224;2023-05-23T07:58:52;102355.52;;;17.83;53.86
46682;BME280;34101;53.430;-2.224;2023-05-23T08:01:20;102348.22;;;17.97;53.78
46682;BME280;34101;53.430;-2.224;2023-05-23T08:03:47;102341.90;;;18.11;53.42
46682;BME280;34101;53.430;-2.224;2023-05-23T08:06:15;102342.45;;;18.26;53.28
46682;BME280;34101;53.430;-2.224;2023-05-23T08:08:42;102341.78;;;18.24;53.54
46682;BME280;34101;53.430;-2.224;2023-05-23T08:11:09;102345.59;;;18.24;53.28
46682;BME280;34101;53.430;-2.224;2023-05-23T08:13:36;102349.36;;;18.31;53.27
46682;BME280;34101;53.430;-2.224;2023-05-23T08:16:04;102344.97;;;18.47;52.21
46682;BME280;34101;53.430;-2.224;2023-05-23T08:18:31;102346.24;;;18.55;51.98
46682;BME280;34101;53.430;-2.224;2023-05-23T08:20:58;102348.97;;;17.95;53.29
46682;BME280;34101;53.430;-2.224;2023-05-23T08:23:25;102349.96;;;18.33;52.76
46682;BME280;34101;53.430;-2.224;2023-05-23T08:25:53;102351.34;;;18.13;52.97
46682;BME280;34101;53.430;-2.224;2023-05-23T08:28:21;102351.04;;;18.28;52.86
46682;BME280;34101;53.430;-2.224;2023-05-23T08:30:48;102351.74;;;18.39;53.14
46682;BME280;34101;53.430;-2.224;2023-05-23T08:33:16;102352.37;;;18.53;52.61
46682;BME280;34101;53.430;-2.224;2023-05-23T08:35:43;102349.51;;;18.94;51.84
46682;BME280;34101;53.430;-2.224;2023-05-23T08:38:10;102351.00;;;18.87;51.27
46682;BME280;34101;53.430;-2.224;2023-05-23T08:40:39;102346.70;;;19.15;50.27
46682;BME280;34101;53.430;-2.224;2023-05-23T08:43:09;102346.60;;;19.28;49.88
46682;BME280;34101;53.430;-2.224;2023-05-23T08:45:36;102341.83;;;19.32;48.74
46682;BME280;34101;53.430;-2.224;2023-05-23T08:48:07;102338.93;;;19.40;46.61
46682;BME280;34101;53.430;-2.224;2023-05-23T08:50:37;102339.82;;;19.25;48.39
46682;BME280;34101;53.430;-2.224;2023-05-23T08:53:05;102340.29;;;19.42;47.01
46682;BME280;34101;53.430;-2.224;2023-05-23T08:55:36;102341.90;;;19.64;46.84
46682;BME280;34101;53.430;-2.224;2023-05-23T08:58:04;102340.40;;;19.68;46.65
46682;BME280;34101;53.430;-2.224;2023-05-23T09:00:32;102339.16;;;19.55;47.29
46682;BME280;34101;53.430;-2.224;2023-05-23T09:02:59;102338.59;;;19.57;45.92
46682;BME280;34101;53.430;-2.224;2023-05-23T09:05:27;102335.06;;;18.97;47.46
46682;BME280;34101;53.430;-2.224;2023-05-23T09:07:54;102335.11;;;19.16;46.64
46682;BME280;34101;53.430;-2.224;2023-05-23T09:10:23;102337.11;;;18.73;47.56
46682;BME280;34101;53.430;-2.224;2023-05-23T09:12:50;102333.61;;;19.19;47.09
46682;BME280;34101;53.430;-2.224;2023-05-23T09:15:17;102329.06;;;19.46;47.33
46682;BME280;34101;53.430;-2.224;2023-05-23T09:17:45;102330.46;;;19.38;47.29
46682;BME280;34101;53.430;-2.224;2023-05-23T09:20:14;102327.15;;;19.91;45.61
46682;BME280;34101;53.430;-2.224;2023-05-23T09:22:45;102328.34;;;20.00;45.12
46682;BME280;34101;53.430;-2.224;2023-05-23T09:25:13;102336.65;;;19.92;45.72
46682;BME280;34101;53.430;-2.224;2023-05-23T09:27:42;102332.41;;;20.33;45.23
46682;BME280;34101;53.430;-2.224;2023-05-23T09:30:11;102330.76;;;20.15;45.38
46682;BME280;34101;53.430;-2.224;2023-05-23T09:32:38;102332.61;;;20.54;44.03
46682;BME280;34101;53.430;-2.224;2023-05-23T09:35:07;102330.77;;;21.04;42.91
46682;BME280;34101;53.430;-2.224;2023-05-23T09:37:35;102337.40;;;20.63;43.82
46682;BME280;34101;53.430;-2.224;2023-05-23T09:40:06;102333.87;;;20.52;44.36
46682;BME280;34101;53.430;-2.224;2023-05-23T09:42:34;102337.04;;;20.36;44.06
46682;BME280;34101;53.430;-2.224;2023-05-23T09:45:01;102333.94;;;20.04;44.55
46682;BME280;34101;53.430;-2.224;2023-05-23T09:47:29;102337.46;;;19.61;46.01
46682;BME280;34101;53.430;-2.224;2023-05-23T09:49:56;102336.01;;;19.41;47.20
46682;BME280;34101;53.430;-2.224;2023-05-23T09:52:24;102331.69;;;18.92;47.75
46682;BME280;34101;53.430;-2.224;2023-05-23T09:54:52;102329.76;;;18.84;48.47
46682;BME280;34101;53.430;-2.224;2023-05-23T09:57:23;102332.15;;;19.15;48.72
46682;BME280;34101;53.430;-2.224;2023-05-23T09:59:57;102328.38;;;19.07;50.47
46682;BME280;34101;53.430;-2.224;2023-05-23T10:03:01;102332.18;;;19.20;50.48
46682;BME280;34101;53.430;-2.224;2023-05-23T10:05:34;102326.70;;;20.05;49.50
46682;BME280;34101;53.430;-2.224;2023-05-23T10:08:07;102325.18;;;20.64;48.23
46682;BME280;34101;53.430;-2.224;2023-05-23T10:11:13;102321.20;;;21.35;46.19
46682;BME280;34101;53.430;-2.224;2023-05-23T10:14:06;102317.68;;;20.22;46.38
46682;BME280;34101;53.430;-2.224;2023-05-23T10:16:39;102317.66;;;20.86;45.44
46682;BME280;34101;53.430;-2.224;2023-05-23T10:19:19;102312.18;;;21.44;43.66
46682;BME280;34101;53.430;-2.224;2023-05-23T10:22:49;102311.46;;;20.60;46.21
46682;BME280;34101;53.430;-2.224;2023-05-23T10:25:16;102310.37;;;21.00;45.38
46682;BME280;34101;53.430;-2.224;2023-05-23T10:27:44;102313.34;;;21.27;45.38
46682;BME280;34101;53.430;-2.224;2023-05-23T10:30:15;102307.82;;;21.53;44.53
46682;BME280;34101;53.430;-2.224;2023-05-23T10:32:42;102307.01;;;22.10;43.86
46682;BME280;34101;53.430;-2.224;2023-05-23T10:35:16;102310.96;;;22.32;43.38
46682;BME280;34101;53.430;-2.224;2023-05-23T10:37:51;102312.31;;;22.13;43.14
46682;BME280;34101;53.430;-2.224;2023-05-23T10:40:31;102307.53;;;21.90;43.99
46682;BME280;34101;53.430;-2.224;2023-05-23T10:43:04;102307.42;;;21.94;43.75
46682;BME280;34101;53.430;-2.224;2023-05-23T10:45:39;102312.33;;;21.50;44.67
46682;BME280;34101;53.430;-2.224;2023-05-23T10:48:19;102305.55;;;20.95;45.11
46682;BME280;34101;53.430;-2.224;2023-05-23T10:51:02;102302.21;;;21.16;45.09
46682;BME280;34101;53.430;-2.224;2023-05-23T10:53:30;102300.16;;;21.51;44.20
46682;BME280;34101;53.430;-2.224;2023-05-23T10:55:57;102298.56;;;21.29;44.88
46682;BME280;34101;53.430;-2.224;2023-05-23T10:58:28;102293.99;;;22.46;43.20
46682;BME280;34101;53.430;-2.224;2023-05-23T11:01:04;102289.76;;;23.37;41.60
46682;BME280;34101;53.430;-2.224;2023-05-23T11:03:34;102291.80;;;22.71;40.79
46682;BME280;34101;53.430;-2.224;2023-05-23T11:06:01;102287.92;;;23.15;39.71
46682;BME280;34101;53.430;-2.224;2023-05-23T11:08:36;102293.28;;;23.38;40.79
46682;BME280;34101;53.430;-2.224;2023-05-23T11:11:04;102299.41;;;22.96;40.28
46682;BME280;34101;53.430;-2.224;2023-05-23T11:14:03;102296.87;;;22.78;40.81
46682;BME280;34101;53.430;-2.224;2023-05-23T11:16:39;102297.94;;;22.59;40.39
46682;BME280;34101;53.430;-2.224;2023-05-23T11:19:25;102297.78;;;22.70;40.91
46682;BME280;34101;53.430;-2.224;2023-05-23T11:21:56;102297.63;;;22.70;41.78
46682;BME280;34101;53.430;-2.224;2023-05-23T11:24:46;102297.43;;;23.07;41.22
46682;BME280;34101;53.430;-2.224;2023-05-23T11:27:14;102298.22;;;23.90;38.88
46682;BME280;34101;53.430;-2.224;2023-05-23T11:29:42;102293.71;;;24.82;37.34
46682;BME280;34101;53.430;-2.224;2023-05-23T11:32:10;102289.52;;;24.97;36.92
46682;BME280;34101;53.430;-2.224;2023-05-23T11:34:38;102281.29;;;24.57;36.98
46682;BME280;34101;53.430;-2.224;2023-05-23T11:37:05;102279.60;;;24.97;36.44
46682;BME280;34101;53.430;-2.224;2023-05-23T11:39:37;102288.75;;;24.80;36.63
46682;BME280;34101;53.430;-2.224;2023-05-23T11:42:05;102281.71;;;25.04;35.97
46682;BME280;34101;53.430;-2.224;2023-05-23T11:44:32;102288.89;;;25.94;34.35
46682;BME280;34101;53.430;-2.224;2023-05-23T11:47:01;102296.97;;;26.09;34.03
46682;BME280;34101;53.430;-2.224;2023-05-23T11:49:29;102296.30;;;24.71;35.65
46682;BME280;34101;53.430;-2.224;2023-05-23T11:52:00;102297.15;;;24.13;36.84
46682;BME280;34101;53.430;-2.224;2023-05-23T11:54:28;102294.49;;;25.17;35.24
46682;BME280;34101;53.430;-2.224;2023-05-23T11:56:55;102284.66;;;24.71;35.75
46682;BME280;34101;53.430;-2.224;2023-05-23T11:59:25;102291.40;;;24.92;35.45
46682;BME280;34101;53.430;-2.224;2023-05-23T12:01:53;102292.63;;;25.73;34.97
46682;BME280;34101;53.430;-2.224;2023-05-23T12:04:20;102292.71;;;25.48;34.14
46682;BME280;34101;53.430;-2.224;2023-05-23T12:06:52;102290.68;;;25.43;34.29
46682;BME280;34101;53.430;-2.224;2023-05-23T12:09:20;102294.18;;;25.14;34.72
46682;BME280;34101;53.430;-2.224;2023-05-23T12:11:48;102290.54;;;24.79;34.66
46682;BME280;34101;53.430;-2.224;2023-05-23T12:14:16;102291.84;;;24.65;34.80
46682;BME280;34101;53.430;-2.224;2023-05-23T12:16:45;102287.77;;;23.59;36.26
46682;BME280;34101;53.430;-2.224;2023-05-23T12:19:12;102283.57;;;23.56;36.59
46682;BME280;34101;53.430;-2.224;2023-05-23T12:21:41;102279.02;;;23.18;36.96
46682;BME280;34101;53.430;-2.224;2023-05-23T12:24:15;102282.07;;;23.79;36.74
46682;BME280;34101;53.430;-2.224;2023-05-23T12:26:48;102286.76;;;23.80;37.42
46682;BME280;34101;53.430;-2.224;2023-05-23T12:29:17;102288.63;;;23.13;38.50
46682;BME280;34101;53.430;-2.224;2023-05-23T12:31:48;102288.81;;;23.66;37.06
46682;BME280;34101;53.430;-2.224;2023-05-23T12:34:16;102284.00;;;24.02;36.52
46682;BME280;34101;53.430;-2.224;2023-05-23T12:36:48;102284.21;;;23.91;36.66
46682;BME280;34101;53.430;-2.224;2023-05-23T12:39:19;102288.92;;;22.45;39.05
46682;BME280;34101;53.430;-2.224;2023-05-23T12:41:50;102278.66;;;21.99;39.98
46682;BME280;34101;53.430;-2.224;2023-05-23T12:44:18;102279.71;;;22.51;40.04
46682;BME280;34101;53.430;-2.224;2023-05-23T12:46:45;102275.94;;;22.16;40.93
46682;BME280;34101;53.430;-2.224;2023-05-23T12:49:12;102276.70;;;21.78;41.22
46682;BME280;34101;53.430;-2.224;2023-05-23T12:51:40;102276.65;;;22.60;40.46